sensor_id;sensor_type;location;lat;lon;timestamp;P1;durP1;ratioP1;P2;durP2;ratioP2
5702;SDS011;2876;51.738;10.050;2022-12-08T00:03:26;18.57;;;10.43;;
5702;SDS011;2876;51.738;10.050;2022-12-08T00:09:35;21.33;;;10.00;;
5702;SDS011;2876;51.738;10.050;2022-12-08T00:15:40;27.33;;;11.13;;
5702;SDS011;2876;51.738;10.050;2022-12-08T00:21:42;15.80;;;9.63;;
5702;SDS011;2876;51.738;10.050;2022-12-08T00:27:47;15.63;;;10.63;;
5702;SDS011;2876;51.738;10.050;2022-12-08T00:33:49;21.47;;;11.13;;
5702;SDS011;2876;51.738;10.050;2022-12-08T00:40:00;19.10;;;10.53;;
5702;SDS011;2876;51.738;10.050;2022-12-08T00:46:02;23.40;;;12.17;;
5702;SDS011;2876;51.738;10.050;2022-12-08T00:52:10;16.80;;;10.17;;
5702;SDS011;2876;51.738;10.050;2022-12-08T00:58:13;16.83;;;9.57;;
5702;SDS011;2876;51.738;10.050;2022-12-08T01:04:22;21.33;;;10.03;;
5702;SDS011;2876;51.738;10.050;2022-12-08T01:10:25;13.20;;;9.57;;
5702;SDS011;2876;51.738;10.050;2022-12-08T01:16:28;15.50;;;8.77;;
5702;SDS011;2876;51.738;10.050;2022-12-08T01:22:33;14.10;;;9.20;;
5702;SDS011;2876;51.738;10.050;2022-12-08T01:28:43;18.57;;;7.97;;
5702;SDS011;2876;51.738;10.050;2022-12-08T01:34:46;14.50;;;8.30;;
5702;SDS011;2876;51.738;10.050;2022-12-08T01:40:48;15.73;;;8.43;;
5702;SDS011;2876;51.738;10.050;2022-12-08T01:46:50;15.73;;;9.10;;
5702;SDS011;2876;51.738;10.050;2022-12-08T01:53:00;15.37;;;9.10;;
5702;SDS011;2876;51.738;10.050;2022-12-08T01:59:10;13.10;;;8.53;;
5702;SDS011;2876;51.738;10.050;2022-12-08T02:05:13;23.17;;;9.40;;
5702;SDS011;2876;51.738;10.050;2022-12-08T02:11:16;16.33;;;8.83;;
5702;SDS011;2876;51.738;10.050;2022-12-08T02:17:35;13.90;;;9.10;;
5702;SDS011;2876;51.738;10.050;2022-12-08T02:37:07;12.67;;;9.70;;
5702;SDS011;2876;51.738;10.050;2022-12-08T02:43:36;17.47;;;9.20;;
5702;SDS011;2876;51.738;10.050;2022-12-08T02:49:44;12.80;;;8.97;;
5702;SDS011;2876;51.738;10.050;2022-12-08T03:14:58;14.17;;;9.07;;
5702;SDS011;2876;51.738;10.050;2022-12-08T03:21:07;16.20;;;9.30;;
5702;SDS011;2876;51.738;10.050;2022-12-08T03:27:14;16.13;;;9.57;;
5702;SDS011;2876;51.738;10.050;2022-12-08T03:33:25;20.80;;;9.77;;
5702;SDS011;2876;51.738;10.050;2022-12-08T03:39:42;12.77;;;8.33;;
5702;SDS011;2876;51.738;10.050;2022-12-08T03:45:47;9.80;;;7.83;;
5702;SDS011;2876;51.738;10.050;2022-12-08T03:51:49;16.07;;;9.03;;
5702;SDS011;2876;51.738;10.050;2022-12-08T03:57:51;17.40;;;9.30;;
5702;SDS011;2876;51.738;10.050;2022-12-08T04:04:02;20.57;;;8.70;;
5702;SDS011;2876;51.738;10.050;2022-12-08T04:10:04;14.80;;;8.20;;
5702;SDS011;2876;51.738;10.050;2022-12-08T04:16:18;13.57;;;8.93;;
5702;SDS011;2876;51.738;10.050;2022-12-08T04:22:24;13.73;;;7.97;;
5702;SDS011;2876;51.738;10.050;2022-12-08T04:28:29;11.50;;;8.00;;
5702;SDS011;2876;51.738;10.050;2022-12-08T04:34:32;17.67;;;7.33;;
5702;SDS011;2876;51.738;10.050;2022-12-08T04:40:34;11.30;;;6.57;;
5702;SDS011;2876;51.738;10.050;2022-12-08T04:46:35;18.73;;;7.80;;
5702;SDS011;2876;51.738;10.050;2022-12-08T04:52:48;14.60;;;8.23;;
5702;SDS011;2876;51.738;10.050;2022-12-08T04:58:50;15.20;;;7.80;;
5702;SDS011;2876;51.738;10.050;2022-12-08T05:04:52;12.33;;;6.70;;
5702;SDS011;2876;51.738;10.050;2022-12-08T05:11:11;12.97;;;8.00;;
5702;SDS011;2876;51.738;10.050;2022-12-08T05:17:15;16.33;;;8.73;;
5702;SDS011;2876;51.738;10.050;2022-12-08T05:23:18;17.33;;;9.47;;
5702;SDS011;2876;51.738;10.050;2022-12-08T05:29:20;15.37;;;8.57;;
5702;SDS011;2876;51.738;10.050;2022-12-08T05:35:22;15.20;;;8.90;;
5702;SDS011;2876;51.738;10.050;2022-12-08T05:41:24;16.70;;;9.73;;
5702;SDS011;2876;51.738;10.050;2022-12-08T05:47:26;16.03;;;10.67;;
5702;SDS011;2876;51.738;10.050;2022-12-08T05:53:34;18.70;;;12.30;;
5702;SDS011;2876;51.738;10.050;2022-12-08T05:59:50;17.90;;;11.97;;
5702;SDS011;2876;51.738;10.050;2022-12-08T06:05:52;17.10;;;11.97;;
5702;SDS011;2876;51.738;10.050;2022-12-08T06:11:54;20.27;;;11.40;;
5702;SDS011;2876;51.738;10.050;2022-12-08T06:17:56;16.50;;;10.20;;
5702;SDS011;2876;51.738;10.050;2022-12-08T06:24:00;20.13;;;11.07;;
5702;SDS011;2876;51.738;10.050;2022-12-08T06:30:02;15.53;;;10.30;;
5702;SDS011;2876;51.738;10.050;2022-12-08T06:36:05;16.90;;;9.70;;
5702;SDS011;2876;51.738;10.050;2022-12-08T06:42:07;16.13;;;10.03;;
5702;SDS011;2876;51.738;10.050;2022-12-08T06:48:28;15.37;;;9.30;;
5702;SDS011;2876;51.738;10.050;2022-12-08T06:54:30;16.60;;;9.50;;
5702;SDS011;2876;51.738;10.050;2022-12-08T07:00:32;17.10;;;10.50;;
5702;SDS011;2876;51.738;10.050;2022-12-08T07:06:34;18.67;;;10.60;;
5702;SDS011;2876;51.738;10.050;2022-12-08T07:12:36;15.03;;;9.93;;
5702;SDS011;2876;51.738;10.050;2022-12-08T07:18:38;19.07;;;9.63;;
5702;SDS011;2876;51.738;10.050;2022-12-08T07:24:40;19.63;;;11.27;;
5702;SDS011;2876;51.738;10.050;2022-12-08T07:30:42;14.97;;;10.13;;
5702;SDS011;2876;51.738;10.050;2022-12-08T07:36:44;15.43;;;10.70;;
5702;SDS011;2876;51.738;10.050;2022-12-08T07:42:48;22.83;;;10.67;;
5702;SDS011;2876;51.738;10.050;2022-12-08T07:48:51;15.50;;;10.30;;
5702;SDS011;2876;51.738;10.050;2022-12-08T07:54:55;17.57;;;9.10;;
5702;SDS011;2876;51.738;10.050;2022-12-08T08:00:57;13.90;;;8.53;;
5702;SDS011;2876;51.738;10.050;2022-12-08T08:06:59;15.07;;;10.00;;
5702;SDS011;2876;51.738;10.050;2022-12-08T08:13:00;16.40;;;8.60;;
5702;SDS011;2876;51.738;10.050;2022-12-08T08:19:03;15.70;;;9.27;;
5702;SDS011;2876;51.738;10.050;2022-12-08T08:25:05;13.23;;;9.60;;
5702;SDS011;2876;51.738;10.050;2022-12-08T08:31:07;14.50;;;10.47;;
5702;SDS011;2876;51.738;10.050;2022-12-08T08:37:09;16.80;;;9.63;;
5702;SDS011;2876;51.738;10.050;2022-12-08T08:43:11;16.60;;;10.47;;
5702;SDS011;2876;51.738;10.050;2022-12-08T08:49:36;15.00;;;11.03;;
5702;SDS011;2876;51.738;10.050;2022-12-08T08:55:38;17.23;;;11.07;;
5702;SDS011;2876;51.738;10.050;2022-12-08T09:01:40;23.10;;;12.20;;
5702;SDS011;2876;51.738;10.050;2022-12-08T09:07:42;17.70;;;11.23;;
5702;SDS011;2876;51.738;10.050;2022-12-08T09:13:53;15.07;;;9.60;;
5702;SDS011;2876;51.738;10.050;2022-12-08T09:19:55;14.90;;;9.67;;
5702;SDS011;2876;51.738;10.050;2022-12-08T09:26:04;17.80;;;10.17;;
5702;SDS011;2876;51.738;10.050;2022-12-08T09:32:06;13.10;;;8.43;;
5702;SDS011;2876;51.738;10.050;2022-12-08T09:38:08;12.10;;;7.07;;
5702;SDS011;2876;51.738;10.050;2022-12-08T09:51:10;13.73;;;8.70;;
5702;SDS011;2876;51.738;10.050;2022-12-08T09:57:25;11.80;;;8.93;;
5702;SDS011;2876;51.738;10.050;2022-12-08T10:03:28;14.80;;;10.07;;
5702;SDS011;2876;51.738;10.050;2022-12-08T10:09:41;15.30;;;8.63;;
5702;SDS011;2876;51.738;10.050;2022-12-08T10:22:33;13.10;;;8.63;;
5702;SDS011;2876;51.738;10.050;2022-12-08T10:28:43;17.30;;;10.43;;
5702;SDS011;2876;51.738;10.050;2022-12-08T10:41:14;14.57;;;9.80;;
5702;SDS011;2876;51.738;10.050;2022-12-08T10:47:19;15.43;;;9.50;;
5702;SDS011;2876;51.738;10.050;2022-12-08T10:53:24;11.13;;;8.17;;
5702;SDS011;2876;51.738;10.050;2022-12-08T10:59:32;12.60;;;8.23;;
5702;SDS011;2876;51.738;10.050;2022-12-08T11:05:34;11.50;;;7.93;;
5702;SDS011;2876;51.738;10.050;2022-12-08T11:18:05;10.50;;;7.77;;
5702;SDS011;2876;51.738;10.050;2022-12-08T11:24:25;8.20;;;6.47;;
5702;SDS011;2876;51.738;10.050;2022-12-08T11:30:37;9.37;;;6.60;;
5702;SDS011;2876;51.738;10.050;2022-12-08T11:36:51;8.83;;;6.40;;
5702;SDS011;2876;51.738;10.050;2022-12-08T11:42:59;8.03;;;5.17;;
5702;SDS011;2876;51.738;10.050;2022-12-08T11:49:11;7.90;;;4.40;;
5702;SDS011;2876;51.738;10.050;2022-12-08T12:01:39;7.40;;;5.20;;
5702;SDS011;2876;51.738;10.050;2022-12-08T12:07:55;5.50;;;3.73;;
5702;SDS011;2876;51.738;10.050;2022-12-08T12:21:18;3.60;;;3.23;;
5702;SDS011;2876;51.738;10.050;2022-12-08T12:27:36;5.80;;;3.90;;
5702;SDS011;2876;51.738;10.050;2022-12-08T12:33:41;8.13;;;3.63;;
5702;SDS011;2876;51.738;10.050;2022-12-08T12:39:54;9.03;;;3.80;;
5702;SDS011;2876;51.738;10.050;2022-12-08T12:58:34;4.50;;;2.90;;
5702;SDS011;2876;51.738;10.050;2022-12-08T13:04:37;4.70;;;3.70;;
5702;SDS011;2876;51.738;10.050;2022-12-08T13:10:39;4.00;;;3.03;;
5702;SDS011;2876;51.738;10.050;2022-12-08T13:17:10;5.70;;;4.20;;
5702;SDS011;2876;51.738;10.050;2022-12-08T13:29:43;14.60;;;3.90;;
5702;SDS011;2876;51.738;10.050;2022-12-08T13:36:28;3.30;;;3.00;;
5702;SDS011;2876;51.738;10.050;2022-12-08T13:49:16;4.53;;;3.50;;
5702;SDS011;2876;51.738;10.050;2022-12-08T13:55:57;4.10;;;3.20;;
5702;SDS011;2876;51.738;10.050;2022-12-08T14:02:28;12.03;;;7.17;;
5702;SDS011;2876;51.738;10.050;2022-12-08T14:08:58;3.30;;;3.00;;
5702;SDS011;2876;51.738;10.050;2022-12-08T14:15:12;3.40;;;3.00;;
5702;SDS011;2876;51.738;10.050;2022-12-08T14:21:15;5.07;;;3.60;;
5702;SDS011;2876;51.738;10.050;2022-12-08T14:27:32;3.63;;;2.90;;
5702;SDS011;2876;51.738;10.050;2022-12-08T14:33:37;3.63;;;3.30;;
5702;SDS011;2876;51.738;10.050;2022-12-08T14:39:40;10.97;;;7.10;;
5702;SDS011;2876;51.738;10.050;2022-12-08T14:51:47;5.60;;;4.13;;
5702;SDS011;2876;51.738;10.050;2022-12-08T14:57:49;4.80;;;3.57;;
5702;SDS011;2876;51.738;10.050;2022-12-08T15:03:51;3.93;;;3.30;;
5702;SDS011;2876;51.738;10.050;2022-12-08T15:16:37;3.77;;;3.13;;
5702;SDS011;2876;51.738;10.050;2022-12-08T15:22:44;3.43;;;3.13;;
5702;SDS011;2876;51.738;10.050;2022-12-08T15:28:46;3.67;;;3.37;;
5702;SDS011;2876;51.738;10.050;2022-12-08T15:34:48;3.60;;;3.30;;
5702;SDS011;2876;51.738;10.050;2022-12-08T15:40:51;4.20;;;3.60;;
5702;SDS011;2876;51.738;10.050;2022-12-08T15:46:54;4.27;;;3.40;;
5702;SDS011;2876;51.738;10.050;2022-12-08T15:52:59;4.47;;;4.07;;
5702;SDS011;2876;51.738;10.050;2022-12-08T15:59:01;4.70;;;4.30;;
5702;SDS011;2876;51.738;10.050;2022-12-08T16:05:03;5.23;;;4.40;;
5702;SDS011;2876;51.738;10.050;2022-12-08T16:11:38;5.23;;;4.60;;
5702;SDS011;2876;51.738;10.050;2022-12-08T16:18:16;5.80;;;4.93;;
5702;SDS011;2876;51.738;10.050;2022-12-08T16:24:25;14.80;;;5.63;;
5702;SDS011;2876;51.738;10.050;2022-12-08T16:30:26;7.87;;;5.53;;
5702;SDS011;2876;51.738;10.050;2022-12-08T16:36:31;8.50;;;6.10;;
5702;SDS011;2876;51.738;10.050;2022-12-08T16:42:34;6.97;;;5.87;;
5702;SDS011;2876;51.738;10.050;2022-12-08T16:48:46;8.13;;;6.13;;
5702;SDS011;2876;51.738;10.050;2022-12-08T16:54:47;9.87;;;6.37;;
5702;SDS011;2876;51.738;10.050;2022-12-08T17:00:49;11.80;;;5.63;;
5702;SDS011;2876;51.738;10.050;2022-12-08T17:06:51;7.60;;;5.77;;
5702;SDS011;2876;51.738;10.050;2022-12-08T17:12:54;6.23;;;5.37;;
5702;SDS011;2876;51.738;10.050;2022-12-08T17:18:56;6.87;;;5.47;;
5702;SDS011;2876;51.738;10.050;2022-12-08T17:24:59;7.17;;;5.67;;
5702;SDS011;2876;51.738;10.050;2022-12-08T17:31:07;7.60;;;6.03;;
5702;SDS011;2876;51.738;10.050;2022-12-08T17:37:10;8.10;;;5.90;;
5702;SDS011;2876;51.738;10.050;2022-12-08T17:43:13;9.40;;;7.10;;
5702;SDS011;2876;51.738;10.050;2022-12-08T17:49:16;8.63;;;6.80;;
5702;SDS011;2876;51.738;10.050;2022-12-08T17:55:22;9.63;;;6.23;;
5702;SDS011;2876;51.738;10.050;2022-12-08T18:01:24;9.27;;;6.67;;
5702;SDS011;2876;51.738;10.050;2022-12-08T18:07:28;8.80;;;7.17;;
5702;SDS011;2876;51.738;10.050;2022-12-08T18:13:33;10.30;;;7.27;;
5702;SDS011;2876;51.738;10.050;2022-12-08T18:19:35;11.50;;;7.87;;
5702;SDS011;2876;51.738;10.050;2022-12-08T18:25:37;10.30;;;7.37;;
5702;SDS011;2876;51.738;10.050;2022-12-08T18:31:39;10.23;;;7.80;;
5702;SDS011;2876;51.738;10.050;2022-12-08T18:37:54;8.93;;;6.93;;
5702;SDS011;2876;51.738;10.050;2022-12-08T18:43:56;8.57;;;6.90;;
5702;SDS011;2876;51.738;10.050;2022-12-08T18:49:58;10.10;;;7.83;;
5702;SDS011;2876;51.738;10.050;2022-12-08T18:56:00;9.57;;;6.83;;
5702;SDS011;2876;51.738;10.050;2022-12-08T19:02:04;8.83;;;7.07;;
5702;SDS011;2876;51.738;10.050;2022-12-08T19:08:16;9.27;;;6.93;;
5702;SDS011;2876;51.738;10.050;2022-12-08T19:14:32;9.80;;;6.27;;
5702;SDS011;2876;51.738;10.050;2022-12-08T19:20:37;8.83;;;6.40;;
5702;SDS011;2876;51.738;10.050;2022-12-08T19:26:39;9.47;;;6.60;;
5702;SDS011;2876;51.738;10.050;2022-12-08T19:32:41;6.80;;;5.43;;
5702;SDS011;2876;51.738;10.050;2022-12-08T19:38:43;9.40;;;6.30;;
5702;SDS011;2876;51.738;10.050;2022-12-08T19:45:12;10.47;;;7.00;;
5702;SDS011;2876;51.738;10.050;2022-12-08T19:51:21;10.87;;;7.97;;
5702;SDS011;2876;51.738;10.050;2022-12-08T19:57:23;9.77;;;6.60;;
5702;SDS011;2876;51.738;10.050;2022-12-08T20:03:25;10.30;;;7.67;;
5702;SDS011;2876;51.738;10.050;2022-12-08T20:09:30;10.00;;;7.03;;
5702;SDS011;2876;51.738;10.050;2022-12-08T20:15:33;10.50;;;7.20;;
5702;SDS011;2876;51.738;10.050;2022-12-08T20:21:35;9.47;;;6.70;;
5702;SDS011;2876;51.738;10.050;2022-12-08T20:27:37;9.10;;;6.80;;
5702;SDS011;2876;51.738;10.050;2022-12-08T20:33:38;9.10;;;6.80;;
5702;SDS011;2876;51.738;10.050;2022-12-08T20:39:40;7.77;;;6.00;;
5702;SDS011;2876;51.738;10.050;2022-12-08T20:45:42;12.40;;;6.97;;
5702;SDS011;2876;51.738;10.050;2022-12-08T20:51:44;12.80;;;7.47;;
5702;SDS011;2876;51.738;10.050;2022-12-08T20:57:47;8.80;;;6.17;;
5702;SDS011;2876;51.738;10.050;2022-12-08T21:03:49;9.83;;;7.13;;
5702;SDS011;2876;51.738;10.050;2022-12-08T21:09:52;12.27;;;7.30;;
5702;SDS011;2876;51.738;10.050;2022-12-08T21:15:55;10.10;;;7.10;;
5702;SDS011;2876;51.738;10.050;2022-12-08T21:21:57;9.53;;;6.90;;
5702;SDS011;2876;51.738;10.050;2022-12-08T21:27:59;10.90;;;7.30;;
5702;SDS011;2876;51.738;10.050;2022-12-08T21:34:11;8.23;;;5.83;;
5702;SDS011;2876;51.738;10.050;2022-12-08T21:40:13;11.47;;;8.30;;
5702;SDS011;2876;51.738;10.050;2022-12-08T21:46:25;8.47;;;7.00;;
5702;SDS011;2876;51.738;10.050;2022-12-08T21:52:27;9.13;;;6.77;;
5702;SDS011;2876;51.738;10.050;2022-12-08T21:58:29;8.87;;;6.70;;
5702;SDS011;2876;51.738;10.050;2022-12-08T22:04:33;11.97;;;6.80;;
5702;SDS011;2876;51.738;10.050;2022-12-08T22:10:35;9.97;;;7.20;;
5702;SDS011;2876;51.738;10.050;2022-12-08T22:16:38;11.93;;;8.63;;
5702;SDS011;2876;51.738;10.050;2022-12-08T22:22:40;11.20;;;8.00;;
5702;SDS011;2876;51.738;10.050;2022-12-08T22:28:43;13.30;;;9.53;;
5702;SDS011;2876;51.738;10.050;2022-12-08T22:34:45;14.43;;;10.47;;
5702;SDS011;2876;51.738;10.050;2022-12-08T22:40:47;16.40;;;9.40;;
5702;SDS011;2876;51.738;10.050;2022-12-08T22:46:49;16.60;;;10.90;;
5702;SDS011;2876;51.738;10.050;2022-12-08T22:52:54;12.70;;;8.80;;
5702;SDS011;2876;51.738;10.050;2022-12-08T22:58:56;13.10;;;8.40;;
5702;SDS011;2876;51.738;10.050;2022-12-08T23:04:58;12.70;;;8.50;;
5702;SDS011;2876;51.738;10.050;2022-12-08T23:11:00;15.27;;;9.83;;
5702;SDS011;2876;51.738;10.050;2022-12-08T23:17:03;18.50;;;11.03;;
5702;SDS011;2876;51.738;10.050;2022-12-08T23:23:05;18.77;;;11.77;;
5702;SDS011;2876;51.738;10.050;2022-12-08T23:29:07;17.23;;;11.33;;
5702;SDS011;2876;51.738;10.050;2022-12-08T23:35:09;15.00;;;9.83;;
5702;SDS011;2876;51.738;10.050;2022-12-08T23:41:12;16.30;;;10.30;;
5702;SDS011;2876;51.738;10.050;2022-12-08T23:47:16;18.93;;;11.00;;
5702;SDS011;2876;51.738;10.050;2022-12-08T23:53:18;14.73;;;10.33;;
5702;SDS011;2876;51.738;10.050;2022-12-08T23:59:21;18.63;;;11.13;;
